createdAt,value
2016-05-05T00:00:37.476Z,37.04
2016-05-05T00:01:37.448Z,37.04
2016-05-05T00:02:37.482Z,37.04
2016-05-05T00:03:37.500Z,37.04
2016-05-05T00:04:37.487Z,37.04
2016-05-05T00:05:37.489Z,37.04
2016-05-05T00:06:37.492Z,37.04
2016-05-05T00:07:37.495Z,37.04
2016-05-05T00:08:37.357Z,37.13
2016-05-05T00:09:38.845Z,37.04
2016-05-05T00:10:37.519Z,36.94
2016-05-05T00:11:37.538Z,37.04
2016-05-05T00:12:37.540Z,37.04
2016-05-05T00:13:37.402Z,37.04
2016-05-05T00:14:37.405Z,36.94
2016-05-05T00:15:37.563Z,37.04
2016-05-05T00:16:37.566Z,37.04
2016-05-05T00:17:37.584Z,37.04
2016-05-05T00:18:37.572Z,36.94
2016-05-05T00:19:37.574Z,37.02
2016-05-05T00:20:37.608Z,37.13
2016-05-05T00:21:37.596Z,37.12
2016-05-05T00:22:37.613Z,37.04
2016-05-05T00:23:37.616Z,37.13
2016-05-05T00:24:37.463Z,37.04
2016-05-05T00:25:37.637Z,37.04
2016-05-05T00:26:37.640Z,37.04
2016-05-05T00:27:37.643Z,37.13
2016-05-05T00:28:37.645Z,37.13
2016-05-05T00:29:37.664Z,37.13
2016-05-05T00:30:37.681Z,37.13
2016-05-05T00:31:37.654Z,37.13
2016-05-05T00:32:37.672Z,37.12
2016-05-05T00:33:37.689Z,37.12
2016-05-05T00:34:37.693Z,37.13
2016-05-05T00:35:37.695Z,37.13
2016-05-05T00:36:37.698Z,37.13
2016-05-05T00:37:37.701Z,37.23
2016-05-05T00:38:37.719Z,37.13
2016-05-05T00:39:38.300Z,37.13
2016-05-05T00:40:37.740Z,37.13
2016-05-05T00:41:37.743Z,37.12
2016-05-05T00:42:37.730Z,37.13
2016-05-05T00:43:37.733Z,37.12
2016-05-05T00:44:37.610Z,37.13
2016-05-05T00:45:37.754Z,37.13
2016-05-05T00:46:37.615Z,37.13
2016-05-05T00:47:37.775Z,37.13
2016-05-05T00:48:37.637Z,37.23
2016-05-05T00:49:37.796Z,37.04
2016-05-05T00:50:37.798Z,37.13
2016-05-05T00:51:37.802Z,37.13
2016-05-05T00:52:37.819Z,37.04
2016-05-05T00:53:37.807Z,37.23
2016-05-05T00:54:37.840Z,37.13
2016-05-05T00:55:37.827Z,36.93
2016-05-05T00:56:37.846Z,37.04
2016-05-05T00:57:37.677Z,37.02
2016-05-05T00:58:37.852Z,36.93
2016-05-05T00:59:37.854Z,37.04
2016-05-05T01:00:37.856Z,36.94
2016-05-05T01:01:37.875Z,37.12
2016-05-05T01:02:37.878Z,37.02
2016-05-05T01:03:37.880Z,37.04
2016-05-05T01:04:37.883Z,36.93
2016-05-05T01:05:37.901Z,37.02
2016-05-05T01:06:37.889Z,36.93
2016-05-05T01:07:37.906Z,36.93
2016-05-05T01:08:38.269Z,36.94
2016-05-05T01:09:37.927Z,37.12
2016-05-05T01:10:37.930Z,36.93
2016-05-05T01:11:37.761Z,36.93
2016-05-05T01:12:37.951Z,37.21
2016-05-05T01:13:37.938Z,37.02
2016-05-05T01:14:37.957Z,37.12
2016-05-05T01:15:37.803Z,36.93
2016-05-05T01:16:37.963Z,37.31
2016-05-05T01:17:37.980Z,36.93
2016-05-05T01:18:38.030Z,37.12
2016-05-05T01:19:38.251Z,37.5
2016-05-05T01:20:37.988Z,37.12
2016-05-05T01:21:38.257Z,37.21
2016-05-05T01:22:37.994Z,37.5
2016-05-05T01:23:38.027Z,37.6
2016-05-05T01:24:38.468Z,37.41
2016-05-05T01:25:38.330Z,37.5
2016-05-05T01:26:37.880Z,37.6
2016-05-05T01:27:38.038Z,37.41
2016-05-05T01:28:38.698Z,37.41
2016-05-05T01:29:38.043Z,37.5
2016-05-05T01:30:37.921Z,37.5
2016-05-05T01:31:38.065Z,37.5
2016-05-05T01:32:38.068Z,37.5
2016-05-05T01:33:38.367Z,37.5
2016-05-05T01:34:38.073Z,37.31
2016-05-05T01:35:38.092Z,37.31
2016-05-05T01:36:38.110Z,37.5
2016-05-05T01:37:38.097Z,37.21
2016-05-05T01:38:38.100Z,37.5
2016-05-05T01:39:38.133Z,37.5
2016-05-05T01:40:38.417Z,37.21
2016-05-05T01:41:38.139Z,37.41
2016-05-05T01:42:38.392Z,37.21
2016-05-05T01:43:38.160Z,37.21
2016-05-05T01:44:38.491Z,37.31
2016-05-05T01:45:38.009Z,37.31
2016-05-05T01:46:38.168Z,37.31
2016-05-05T01:47:38.216Z,37.21
2016-05-05T01:48:38.485Z,37.31
2016-05-05T01:49:38.426Z,37.31
2016-05-05T01:50:38.194Z,37.31
2016-05-05T01:51:38.197Z,37.31
2016-05-05T01:52:38.220Z,37.31
2016-05-05T01:53:38.328Z,37.31
2016-05-05T01:54:38.327Z,37.21
2016-05-05T01:55:38.622Z,37.21
2016-05-05T01:56:38.417Z,37.31
2016-05-05T01:57:38.449Z,37.41
2016-05-05T01:58:38.639Z,37.21
2016-05-05T01:59:38.485Z,37.21
2016-05-05T02:00:38.362Z,37.21
2016-05-05T02:01:38.537Z,37.31
2016-05-05T02:02:38.863Z,37.21
2016-05-05T02:03:38.841Z,37.21
2016-05-05T02:04:38.598Z,37.31
2016-05-05T02:05:38.451Z,37.31
2016-05-05T02:06:38.616Z,37.31
2016-05-05T02:07:38.622Z,37.31
2016-05-05T02:08:38.830Z,37.31
2016-05-05T02:09:38.663Z,37.31
2016-05-05T02:10:38.651Z,37.31
2016-05-05T02:11:38.843Z,37.21
2016-05-05T02:12:38.676Z,37.31
2016-05-05T02:13:38.758Z,37.21
2016-05-05T02:14:38.682Z,37.21
2016-05-05T02:15:38.781Z,37.21
2016-05-05T02:16:38.533Z,37.31
2016-05-05T02:17:38.693Z,37.21
2016-05-05T02:18:38.758Z,37.41
2016-05-05T02:19:38.715Z,37.31
2016-05-05T02:20:38.718Z,37.31
2016-05-05T02:21:38.721Z,37.21
2016-05-05T02:22:38.912Z,37.31
2016-05-05T02:23:38.994Z,37.21
2016-05-05T02:24:39.074Z,37.21
2016-05-05T02:25:38.952Z,37.21
2016-05-05T02:26:38.751Z,37.21
2016-05-05T02:27:38.770Z,37.21
2016-05-05T02:28:38.913Z,37.41
2016-05-05T02:29:38.776Z,37.21
2016-05-05T02:30:38.779Z,37.31
2016-05-05T02:31:38.890Z,37.31
2016-05-05T02:32:38.799Z,37.31
2016-05-05T02:33:38.895Z,37.21
2016-05-05T02:34:38.804Z,37.31
2016-05-05T02:35:38.823Z,37.21
2016-05-05T02:36:38.934Z,37.31
2016-05-05T02:37:38.828Z,37.21
2016-05-05T02:38:39.144Z,37.31
2016-05-05T02:39:39.115Z,37.21
2016-05-05T02:40:38.962Z,37.21
2016-05-05T02:41:38.839Z,37.21
2016-05-05T02:42:38.873Z,37.21
2016-05-05T02:43:39.110Z,37.21
2016-05-05T02:44:38.879Z,37.21
2016-05-05T02:45:38.881Z,37.21
2016-05-05T02:46:38.883Z,37.12
2016-05-05T02:47:38.902Z,37.21
2016-05-05T02:48:38.905Z,37.21
2016-05-05T02:49:39.063Z,37.21
2016-05-05T02:50:38.911Z,37.31
2016-05-05T02:51:38.913Z,37.21
2016-05-05T02:52:39.072Z,37.31
2016-05-05T02:53:39.074Z,37.21
2016-05-05T02:54:38.937Z,37.21
2016-05-05T02:55:39.236Z,37.12
2016-05-05T02:56:38.958Z,37.21
2016-05-05T02:57:38.945Z,37.12
2016-05-05T02:58:39.260Z,37.21
2016-05-05T02:59:38.966Z,37.02
2016-05-05T03:00:38.985Z,37.12
2016-05-05T03:01:39.284Z,37.5
2016-05-05T03:02:39.005Z,37.12
2016-05-05T03:03:38.992Z,37.21
2016-05-05T03:04:39.010Z,37.12
2016-05-05T03:05:39.013Z,37.21
2016-05-05T03:06:39.015Z,37.21
2016-05-05T03:07:39.034Z,37.21
2016-05-05T03:08:39.021Z,37.21
2016-05-05T03:09:39.056Z,37.12
2016-05-05T03:10:39.308Z,37.21
2016-05-05T03:11:39.060Z,37.5
2016-05-05T03:12:39.047Z,37.5
2016-05-05T03:13:39.066Z,37.41
2016-05-05T03:14:39.053Z,37.41
2016-05-05T03:15:39.086Z,37.12
2016-05-05T03:16:39.074Z,37.41
2016-05-05T03:17:39.077Z,37.41
2016-05-05T03:18:39.330Z,37.41
2016-05-05T03:19:39.098Z,37.5
2016-05-05T03:20:39.100Z,37.41
2016-05-05T03:21:39.102Z,37.5
2016-05-05T03:22:39.371Z,37.7
2016-05-05T03:23:39.124Z,37.41
2016-05-05T03:24:39.127Z,37.7
2016-05-05T03:25:39.146Z,37.12
2016-05-05T03:26:39.148Z,37.5
2016-05-05T03:27:39.182Z,37.5
2016-05-05T03:28:38.996Z,37.41
2016-05-05T03:29:39.172Z,37.41
2016-05-05T03:30:39.159Z,37.6
2016-05-05T03:31:39.192Z,37.6
2016-05-05T03:32:39.335Z,37.7
2016-05-05T03:33:39.198Z,37.41
2016-05-05T03:34:39.404Z,37.5
2016-05-05T03:35:39.219Z,37.58
2016-05-05T03:36:39.034Z,37.6
2016-05-05T03:37:39.287Z,37.48
2016-05-05T03:38:39.212Z,37.1
2016-05-05T03:39:40.479Z,37.79
2016-05-05T03:40:39.248Z,37.48
2016-05-05T03:41:39.234Z,37.41
2016-05-05T03:42:39.081Z,37.48
2016-05-05T03:43:39.256Z,37.02
2016-05-05T03:44:39.259Z,37.6
2016-05-05T03:45:39.277Z,37.6
2016-05-05T03:46:39.373Z,37.29
2016-05-05T03:47:39.392Z,37.5
2016-05-05T03:48:39.286Z,37.6
2016-05-05T03:49:39.303Z,37.6
2016-05-05T03:50:39.305Z,37.7
2016-05-05T03:51:39.308Z,37.7
2016-05-05T03:52:39.311Z,37.39
2016-05-05T03:53:39.313Z,37.6
2016-05-05T03:54:39.191Z,37.7
2016-05-05T03:55:39.382Z,37.7
2016-05-05T03:56:39.338Z,37.7
2016-05-05T03:57:39.341Z,37.7
2016-05-05T03:58:39.359Z,37.7
2016-05-05T03:59:39.346Z,37.7
2016-05-05T04:00:39.364Z,37.39
2016-05-05T04:01:39.367Z,37.6
2016-05-05T04:02:39.370Z,37.7
2016-05-05T04:03:39.372Z,37.5
2016-05-05T04:04:39.390Z,37.77
2016-05-05T04:05:39.378Z,37.68
2016-05-05T04:06:39.396Z,37.58
2016-05-05T04:07:39.399Z,37.7
2016-05-05T04:08:39.261Z,37.6
2016-05-05T04:09:39.420Z,37.58
2016-05-05T04:10:39.266Z,37.6
2016-05-05T04:11:39.440Z,37.6
2016-05-05T04:12:39.443Z,37.6
2016-05-05T04:13:39.462Z,37.5
2016-05-05T04:14:39.464Z,37.68
2016-05-05T04:15:39.451Z,37.6
2016-05-05T04:16:39.470Z,37.68
2016-05-05T04:17:39.473Z,37.68
2016-05-05T04:18:39.475Z,37.68
2016-05-05T04:19:39.478Z,37.7
2016-05-05T04:20:39.496Z,37.5
2016-05-05T04:21:39.483Z,37.5
2016-05-05T04:22:39.502Z,37.6
2016-05-05T04:23:39.504Z,37.7
2016-05-05T04:24:39.538Z,37.7
2016-05-05T04:25:39.525Z,37.6
2016-05-05T04:26:39.544Z,37.6
2016-05-05T04:27:39.531Z,37.7
2016-05-05T04:28:39.533Z,37.7
2016-05-05T04:29:39.552Z,37.6
2016-05-05T04:30:39.554Z,37.41
2016-05-05T04:31:39.557Z,37.79
2016-05-05T04:32:39.560Z,37.79
2016-05-05T04:33:39.593Z,37.12
2016-05-05T04:34:39.581Z,37.5
2016-05-05T04:35:39.583Z,37.5
2016-05-05T04:36:39.602Z,37.7
2016-05-05T04:37:39.604Z,37.5
2016-05-05T04:38:39.607Z,37.41
2016-05-05T04:39:39.454Z,37.5
2016-05-05T04:40:39.643Z,37.41
2016-05-05T04:41:39.631Z,37.21
2016-05-05T04:42:39.634Z,37.21
2016-05-05T04:43:39.636Z,37.12
2016-05-05T04:44:39.639Z,37.41
2016-05-05T04:45:39.642Z,37.5
2016-05-05T04:46:39.645Z,37.5
2016-05-05T04:47:39.506Z,37.21
2016-05-05T04:48:39.664Z,37.21
2016-05-05T04:49:39.528Z,37.12
2016-05-05T04:50:39.686Z,37.21
2016-05-05T04:51:39.689Z,37.41
2016-05-05T04:52:39.691Z,37.21
2016-05-05T04:53:39.539Z,37.21
2016-05-05T04:54:40.963Z,37.02
2016-05-05T04:55:39.715Z,37.21
2016-05-05T04:56:39.719Z,37.21
2016-05-05T04:57:39.721Z,37.21
2016-05-05T04:58:39.738Z,37.12
2016-05-05T04:59:39.742Z,37.21
2016-05-05T05:00:39.744Z,37.31
2016-05-05T05:01:39.763Z,37.12
2016-05-05T05:02:39.610Z,37.12
2016-05-05T05:03:39.768Z,37.21
2016-05-05T05:04:39.754Z,37.21
2016-05-05T05:05:39.789Z,37.12
2016-05-05T05:06:39.777Z,37.31
2016-05-05T05:07:39.795Z,37.12
2016-05-05T05:08:39.782Z,37.21
2016-05-05T05:09:39.846Z,37.21
2016-05-05T05:10:39.818Z,37.12
2016-05-05T05:11:39.820Z,37.21
2016-05-05T05:12:39.824Z,37.12
2016-05-05T05:13:39.826Z,37.21
2016-05-05T05:14:39.829Z,37.21
2016-05-05T05:15:39.832Z,37.21
2016-05-05T05:16:39.850Z,37.21
2016-05-05T05:17:39.852Z,37.21
2016-05-05T05:18:39.855Z,37.21
2016-05-05T05:19:39.858Z,37.12
2016-05-05T05:20:39.876Z,37.12
2016-05-05T05:21:39.864Z,37.12
2016-05-05T05:22:39.897Z,37.21
2016-05-05T05:23:39.900Z,37.12
2016-05-05T05:24:40.231Z,37.21
2016-05-05T05:25:39.905Z,37.21
2016-05-05T05:26:39.924Z,37.21
2016-05-05T05:27:39.769Z,37.21
2016-05-05T05:28:39.929Z,37.21
2016-05-05T05:29:39.791Z,37.21
2016-05-05T05:30:39.935Z,37.21
2016-05-05T05:31:39.937Z,37.21
2016-05-05T05:32:39.955Z,37.21
2016-05-05T05:33:39.958Z,37.12
2016-05-05T05:34:39.960Z,37.31
2016-05-05T05:35:39.948Z,37.31
2016-05-05T05:36:39.826Z,37.31
2016-05-05T05:37:39.968Z,37.21
2016-05-05T05:38:39.987Z,37.21
2016-05-05T05:39:39.881Z,37.21
2016-05-05T05:40:40.009Z,37.21
2016-05-05T05:41:40.011Z,37.21
2016-05-05T05:42:39.873Z,37.12
2016-05-05T05:43:40.031Z,37.21
2016-05-05T05:44:40.019Z,37.31
2016-05-05T05:45:40.037Z,37.31
2016-05-05T05:46:40.040Z,37.21
2016-05-05T05:47:40.042Z,37.21
2016-05-05T05:48:40.045Z,37.21
2016-05-05T05:49:40.048Z,37.21
2016-05-05T05:50:40.066Z,37.21
2016-05-05T05:51:40.069Z,37.31
2016-05-05T05:52:40.072Z,37.31
2016-05-05T05:53:40.089Z,37.12
2016-05-05T05:54:40.092Z,37.21
2016-05-05T05:55:40.111Z,37.31
2016-05-05T05:56:40.097Z,37.21
2016-05-05T05:57:40.116Z,37.31
2016-05-05T05:58:40.135Z,37.21
2016-05-05T05:59:40.138Z,37.31
2016-05-05T06:00:40.124Z,37.21
2016-05-05T06:01:40.143Z,37.31
2016-05-05T06:02:40.145Z,37.31
2016-05-05T06:03:39.991Z,37.21
2016-05-05T06:04:40.166Z,37.21
2016-05-05T06:05:40.154Z,37.21
2016-05-05T06:06:40.172Z,37.31
2016-05-05T06:07:40.190Z,37.21
2016-05-05T06:08:40.192Z,37.31
2016-05-05T06:09:40.382Z,37.31
2016-05-05T06:10:40.199Z,37.31
2016-05-05T06:11:40.045Z,37.21
2016-05-05T06:12:40.203Z,37.31
2016-05-05T06:13:40.206Z,37.31
2016-05-05T06:14:40.225Z,37.21
2016-05-05T06:15:40.211Z,37.31
2016-05-05T06:16:40.245Z,37.21
2016-05-05T06:17:40.233Z,37.31
2016-05-05T06:18:40.110Z,37.31
2016-05-05T06:19:40.253Z,37.21
2016-05-05T06:20:40.272Z,37.31
2016-05-05T06:21:40.275Z,37.31
2016-05-05T06:22:40.292Z,37.31
2016-05-05T06:23:40.274Z,37.31
2016-05-05T06:24:40.636Z,37.31
2016-05-05T06:25:40.295Z,37.21
2016-05-05T06:26:40.299Z,37.21
2016-05-05T06:27:40.285Z,37.21
2016-05-05T06:28:40.146Z,37.21
2016-05-05T06:29:40.306Z,37.21
2016-05-05T06:30:40.324Z,37.31
2016-05-05T06:31:40.327Z,37.31
2016-05-05T06:32:40.330Z,37.31
2016-05-05T06:33:40.192Z,37.31
2016-05-05T06:34:40.335Z,37.21
2016-05-05T06:35:40.337Z,37.31
2016-05-05T06:36:40.356Z,37.21
2016-05-05T06:37:40.359Z,37.21
2016-05-05T06:38:40.361Z,37.31
2016-05-05T06:39:41.411Z,37.21
2016-05-05T06:40:40.382Z,37.21
2016-05-05T06:41:40.384Z,37.21
2016-05-05T06:42:40.388Z,37.31
2016-05-05T06:43:40.406Z,37.31
2016-05-05T06:44:40.409Z,37.31
2016-05-05T06:45:40.427Z,37.21
2016-05-05T06:46:40.430Z,37.31
2016-05-05T06:47:40.433Z,37.31
2016-05-05T06:48:40.450Z,37.31
2016-05-05T06:49:40.453Z,37.31
2016-05-05T06:50:40.441Z,37.21
2016-05-05T06:51:40.443Z,37.31
2016-05-05T06:52:40.461Z,37.31
2016-05-05T06:53:40.464Z,37.31
2016-05-05T06:54:41.592Z,37.31
2016-05-05T06:55:40.485Z,37.41
2016-05-05T06:56:40.488Z,37.31
2016-05-05T06:57:40.507Z,37.31
2016-05-05T06:58:40.493Z,37.31
2016-05-05T06:59:40.512Z,37.31
2016-05-05T07:00:40.514Z,37.21
2016-05-05T07:01:40.518Z,37.41
2016-05-05T07:02:40.520Z,37.5
2016-05-05T07:03:40.538Z,37.21
2016-05-05T07:04:40.541Z,37.31
2016-05-05T07:05:40.529Z,37.21
2016-05-05T07:06:40.546Z,37.31
2016-05-05T07:07:40.565Z,37.5
2016-05-05T07:08:40.567Z,37.31
2016-05-05T07:09:40.585Z,37.02
2016-05-05T07:10:40.588Z,37.12
2016-05-05T07:11:40.606Z,37.21
2016-05-05T07:12:40.593Z,36.93
2016-05-05T07:13:40.596Z,37.5
2016-05-05T07:14:40.599Z,37.5
2016-05-05T07:15:40.617Z,37.21
2016-05-05T07:16:40.619Z,37.21
2016-05-05T07:17:40.623Z,37.21
2016-05-05T07:18:40.641Z,37.41
2016-05-05T07:19:40.659Z,37.43
2016-05-05T07:20:40.646Z,37.52
2016-05-05T07:21:40.664Z,37.5
2016-05-05T07:22:40.667Z,37.13
2016-05-05T07:23:40.654Z,36.94
2016-05-05T07:24:40.672Z,37.04
2016-05-05T07:25:40.675Z,37.04
2016-05-05T07:26:40.678Z,37.52
2016-05-05T07:27:40.696Z,37.43
2016-05-05T07:28:40.699Z,37.04
2016-05-05T07:29:40.702Z,37.13
2016-05-05T07:30:40.705Z,37.13
2016-05-05T07:31:40.566Z,37.12
2016-05-05T07:32:40.726Z,37.04
2016-05-05T07:33:40.744Z,37.12
2016-05-05T07:34:40.746Z,37.12
2016-05-05T07:35:40.593Z,36.94
2016-05-05T07:36:40.596Z,37.04
2016-05-05T07:37:40.770Z,37.13
2016-05-05T07:38:40.757Z,37.13
2016-05-05T07:39:41.509Z,36.94
2016-05-05T07:40:40.779Z,36.94
2016-05-05T07:41:40.781Z,37.04
2016-05-05T07:42:40.783Z,37.04
2016-05-05T07:43:40.802Z,37.13
2016-05-05T07:44:40.804Z,36.94
2016-05-05T07:45:40.823Z,37.13
2016-05-05T07:46:40.825Z,36.94
2016-05-05T07:47:40.828Z,37.23
2016-05-05T07:48:40.815Z,36.94
2016-05-05T07:49:40.833Z,37.04
2016-05-05T07:50:40.837Z,37.13
2016-05-05T07:51:40.855Z,37.13
2016-05-05T07:52:40.858Z,37.13
2016-05-05T07:53:40.703Z,37.04
2016-05-05T07:54:40.722Z,37.13
2016-05-05T07:55:40.880Z,37.13
2016-05-05T07:56:40.883Z,37.13
2016-05-05T07:57:40.886Z,37.04
2016-05-05T07:58:40.905Z,36.94
2016-05-05T07:59:40.908Z,37.13
2016-05-05T08:00:40.910Z,36.94
2016-05-05T08:01:40.929Z,37.04
2016-05-05T08:02:40.915Z,37.04
2016-05-05T08:03:40.934Z,37.23
2016-05-05T08:04:40.937Z,36.94
2016-05-05T08:05:40.783Z,37.13
2016-05-05T08:06:40.943Z,37.13
2016-05-05T08:07:40.960Z,37.13
2016-05-05T08:08:40.962Z,37.13
2016-05-05T08:09:40.966Z,37.13
2016-05-05T08:10:40.984Z,37.13
2016-05-05T08:11:41.018Z,37.13
2016-05-05T08:12:40.989Z,37.04
2016-05-05T08:13:40.992Z,37.23
2016-05-05T08:14:40.995Z,37.04
2016-05-05T08:15:40.998Z,37.13
2016-05-05T08:16:41.015Z,36.94
2016-05-05T08:17:41.017Z,37.04
2016-05-05T08:18:41.037Z,37.04
2016-05-05T08:19:41.055Z,37.04
2016-05-05T08:20:41.042Z,36.94
2016-05-05T08:21:41.061Z,37.04
2016-05-05T08:22:40.923Z,37.13
2016-05-05T08:23:41.066Z,37.04
2016-05-05T08:24:41.100Z,37.04
2016-05-05T08:25:41.086Z,37.04
2016-05-05T08:26:41.089Z,37.13
2016-05-05T08:27:41.092Z,37.13
2016-05-05T08:28:41.111Z,36.94
2016-05-05T08:29:41.113Z,37.06
2016-05-05T08:30:41.022Z,36.96
2016-05-05T08:31:41.119Z,37.13
2016-05-05T08:32:41.121Z,36.94
2016-05-05T08:33:41.124Z,37.15
2016-05-05T08:34:41.174Z,36.94
2016-05-05T08:35:41.160Z,36.94
2016-05-05T08:36:41.163Z,36.94
2016-05-05T08:37:41.010Z,36.96
2016-05-05T08:38:41.168Z,36.96
2016-05-05T08:39:41.171Z,36.75
2016-05-05T08:40:41.189Z,36.85
2016-05-05T08:41:41.192Z,36.85
2016-05-05T08:42:41.195Z,36.94
2016-05-05T08:43:41.213Z,36.85
2016-05-05T08:44:41.200Z,36.94
2016-05-05T08:45:41.235Z,37.06
2016-05-05T08:46:41.237Z,36.87
2016-05-05T08:47:41.083Z,36.77
2016-05-05T08:48:41.242Z,36.77
2016-05-05T08:49:41.104Z,36.96
2016-05-05T08:50:41.092Z,37.06
2016-05-05T08:51:41.266Z,36.77
2016-05-05T08:52:41.269Z,36.87
2016-05-05T08:53:41.272Z,36.96
2016-05-05T08:54:41.289Z,37.06
2016-05-05T08:55:41.277Z,36.96
2016-05-05T08:56:41.295Z,36.67
2016-05-05T08:57:41.142Z,36.87
2016-05-05T08:58:41.316Z,36.87
2016-05-05T08:59:41.162Z,36.87
2016-05-05T09:00:41.166Z,36.87
2016-05-05T09:01:41.341Z,36.96
2016-05-05T09:02:41.342Z,36.67
2016-05-05T09:03:41.361Z,36.87
2016-05-05T09:04:41.207Z,36.77
2016-05-05T09:05:41.366Z,36.87
2016-05-05T09:06:41.368Z,37.06
2016-05-05T09:07:41.371Z,36.77
2016-05-05T09:08:41.390Z,36.77
2016-05-05T09:09:41.393Z,36.77
2016-05-05T09:10:41.379Z,36.77
2016-05-05T09:11:41.398Z,36.67
2016-05-05T09:12:41.416Z,36.48
2016-05-05T09:13:41.419Z,36.48
2016-05-05T09:14:41.421Z,36.57
2016-05-05T09:15:41.424Z,36.48
2016-05-05T09:16:41.443Z,36.48
2016-05-05T09:17:41.446Z,36.48
2016-05-05T09:18:41.306Z,36.77
2016-05-05T09:19:41.451Z,36.67
2016-05-05T09:20:41.312Z,36.38
2016-05-05T09:21:41.472Z,36.48
2016-05-05T09:22:41.475Z,36.5
2016-05-05T09:23:41.477Z,36.5
2016-05-05T09:24:41.511Z,36.59
2016-05-05T09:25:41.513Z,36.57
2016-05-05T09:26:41.501Z,36.5
2016-05-05T09:27:41.503Z,36.88
2016-05-05T09:28:41.522Z,36.5
2016-05-05T09:29:41.608Z,36.59
2016-05-05T09:30:41.529Z,36.48
2016-05-05T09:31:41.536Z,36.69
2016-05-05T09:32:41.547Z,36.5
2016-05-05T09:33:41.559Z,36.48
2016-05-05T09:34:41.561Z,36.57
2016-05-05T09:35:41.564Z,36.5
2016-05-05T09:36:41.567Z,36.5
2016-05-05T09:37:41.585Z,36.59
2016-05-05T09:38:41.587Z,36.4
2016-05-05T09:39:41.622Z,36.59
2016-05-05T09:40:41.593Z,36.4
2016-05-05T09:41:41.612Z,36.59
2016-05-05T09:42:41.609Z,36.4
2016-05-05T09:43:41.627Z,36.59
2016-05-05T09:44:41.629Z,36.59
2016-05-05T09:45:41.647Z,36.69
2016-05-05T09:46:41.635Z,36.4
2016-05-05T09:47:41.653Z,36.5
2016-05-05T09:48:41.656Z,36.69
2016-05-05T09:49:41.659Z,36.59
2016-05-05T09:50:41.661Z,36.5
2016-05-05T09:51:41.680Z,36.69
2016-05-05T09:52:41.683Z,36.69
2016-05-05T09:53:41.700Z,36.5
2016-05-05T09:54:41.703Z,36.59
2016-05-05T09:55:41.706Z,36.79
2016-05-05T09:56:41.708Z,36.11
2016-05-05T09:57:41.727Z,36.11
2016-05-05T09:58:41.730Z,35.92
2016-05-05T09:59:41.576Z,35.82
2016-05-05T10:00:41.735Z,36.01
2016-05-05T10:01:41.738Z,36.21
2016-05-05T10:02:41.755Z,35.94
2016-05-05T10:03:41.774Z,36.21
2016-05-05T10:04:41.776Z,36.11
2016-05-05T10:05:41.623Z,36.21
2016-05-05T10:06:41.641Z,36.11
2016-05-05T10:07:41.801Z,36.3
2016-05-05T10:08:41.803Z,36.69
2016-05-05T10:09:42.165Z,36.11
2016-05-05T10:10:41.668Z,36.5
2016-05-05T10:11:41.826Z,36.11
2016-05-05T10:12:41.830Z,36.01
2016-05-05T10:13:41.832Z,36.21
2016-05-05T10:14:41.834Z,35.82
2016-05-05T10:15:41.838Z,36.22
2016-05-05T10:16:41.856Z,36.32
2016-05-05T10:17:41.858Z,36.32
2016-05-05T10:18:41.878Z,36.13
2016-05-05T10:19:41.880Z,36.03
2016-05-05T10:20:41.882Z,35.94
2016-05-05T10:21:41.729Z,36.01
2016-05-05T10:22:41.919Z,36.03
2016-05-05T10:23:41.891Z,36.22
2016-05-05T10:24:42.393Z,36.22
2016-05-05T10:25:41.927Z,36.13
2016-05-05T10:26:41.945Z,36.22
2016-05-05T10:27:41.948Z,36.22
2016-05-05T10:28:41.950Z,36.13
2016-05-05T10:29:41.953Z,36.42
2016-05-05T10:30:41.971Z,36.13
2016-05-05T10:31:41.958Z,36.32
2016-05-05T10:32:41.978Z,35.94
2016-05-05T10:33:41.980Z,36.32
2016-05-05T10:34:41.999Z,36.13
2016-05-05T10:35:41.844Z,35.84
2016-05-05T10:36:42.004Z,36.13
2016-05-05T10:37:42.007Z,36.03
2016-05-05T10:38:42.040Z,35.94
2016-05-05T10:39:43.465Z,35.94
2016-05-05T10:40:42.045Z,36.03
2016-05-05T10:41:41.876Z,35.84
2016-05-05T10:42:42.051Z,36.03
2016-05-05T10:43:42.054Z,36.22
2016-05-05T10:44:42.072Z,36.03
2016-05-05T10:45:42.075Z,36.03
2016-05-05T10:46:42.078Z,36.32
2016-05-05T10:47:42.081Z,36.01
2016-05-05T10:48:42.098Z,36.21
2016-05-05T10:49:42.101Z,36.22
2016-05-05T10:50:42.103Z,36.32
2016-05-05T10:51:42.106Z,36.13
2016-05-05T10:52:42.125Z,36.03
2016-05-05T10:53:42.142Z,36.03
2016-05-05T10:54:42.786Z,36.03
2016-05-05T10:55:42.164Z,36.03
2016-05-05T10:56:43.089Z,35.94
2016-05-05T10:57:42.169Z,35.94
2016-05-05T10:58:42.204Z,36.22
2016-05-05T10:59:42.078Z,36.22
2016-05-05T11:00:42.296Z,36.03
2016-05-05T11:01:42.281Z,36.03
2016-05-05T11:02:42.670Z,36.32
2016-05-05T11:03:42.431Z,36.22
2016-05-05T11:04:42.465Z,36.03
2016-05-05T11:05:42.327Z,35.94
2016-05-05T11:06:42.502Z,35.84
2016-05-05T11:07:42.520Z,35.84
2016-05-05T11:08:42.532Z,35.94
2016-05-05T11:09:42.572Z,36.13
2016-05-05T11:10:42.564Z,36.22
2016-05-05T11:11:42.588Z,36.42
2016-05-05T11:12:42.596Z,36.22
2016-05-05T11:13:42.601Z,36.22
2016-05-05T11:14:42.606Z,36.42
2016-05-05T11:15:42.641Z,36.32
2016-05-05T11:16:42.630Z,36.03
2016-05-05T11:17:42.665Z,36.32
2016-05-05T11:18:42.655Z,36.32
2016-05-05T11:19:42.673Z,36.22
2016-05-05T11:20:42.505Z,36.13
2016-05-05T11:21:42.696Z,36.22
2016-05-05T11:22:42.715Z,36.42
2016-05-05T11:23:42.684Z,36.03
2016-05-05T11:24:42.702Z,36.05
2016-05-05T11:25:42.705Z,35.95
2016-05-05T11:26:42.708Z,36.15
2016-05-05T11:27:42.727Z,35.95
2016-05-05T11:28:42.745Z,35.95
2016-05-05T11:29:42.592Z,35.95
2016-05-05T11:30:42.750Z,36.05
2016-05-05T11:31:42.754Z,36.44
2016-05-05T11:32:42.617Z,36.05
2016-05-05T11:33:42.791Z,36.24
2016-05-05T11:34:42.777Z,36.15
2016-05-05T11:35:42.796Z,35.95
2016-05-05T11:36:42.799Z,36.15
2016-05-05T11:37:42.785Z,36.05
2016-05-05T11:38:42.804Z,36.05
2016-05-05T11:39:42.995Z,36.05
2016-05-05T11:40:42.825Z,36.05
2016-05-05T11:41:42.844Z,36.15
2016-05-05T11:42:42.846Z,36.15
2016-05-05T11:43:42.865Z,35.95
2016-05-05T11:44:42.851Z,36.05
2016-05-05T11:45:42.855Z,36.05
2016-05-05T11:46:42.873Z,35.86
2016-05-05T11:47:42.876Z,35.86
2016-05-05T11:48:42.893Z,35.76
2016-05-05T11:49:42.881Z,35.76
2016-05-05T11:50:42.743Z,36.26
2016-05-05T11:51:42.917Z,35.68
2016-05-05T11:52:42.920Z,35.88
2016-05-05T11:53:42.907Z,35.86
2016-05-05T11:54:42.941Z,36.05
2016-05-05T11:55:42.944Z,36.05
2016-05-05T11:56:42.962Z,36.16
2016-05-05T11:57:42.965Z,35.95
2016-05-05T11:58:42.967Z,35.95
2016-05-05T11:59:42.970Z,36.05
2016-05-05T12:00:42.988Z,36.05
2016-05-05T12:01:42.991Z,35.95
2016-05-05T12:02:42.994Z,36.15
2016-05-05T12:03:43.012Z,36.16
2016-05-05T12:04:43.015Z,36.16
2016-05-05T12:05:43.017Z,36.15
2016-05-05T12:06:43.036Z,36.05
2016-05-05T12:07:42.882Z,35.95
2016-05-05T12:08:42.900Z,35.97
2016-05-05T12:09:43.075Z,36.16
2016-05-05T12:10:43.063Z,36.07
2016-05-05T12:11:43.049Z,36.26
2016-05-05T12:12:43.068Z,35.97
2016-05-05T12:13:43.085Z,36.16
2016-05-05T12:14:43.088Z,36.07
2016-05-05T12:15:43.090Z,35.97
2016-05-05T12:16:43.110Z,35.97
2016-05-05T12:17:43.113Z,35.97
2016-05-05T12:18:43.146Z,35.97
2016-05-05T12:19:43.133Z,35.88
2016-05-05T12:20:43.135Z,35.97
2016-05-05T12:21:43.154Z,35.97
2016-05-05T12:22:43.156Z,36.16
2016-05-05T12:23:43.159Z,36.16
2016-05-05T12:24:43.522Z,36.16
2016-05-05T12:25:43.181Z,35.88
2016-05-05T12:26:43.027Z,35.97
2016-05-05T12:27:43.186Z,35.97
2016-05-05T12:28:43.204Z,36.16
2016-05-05T12:29:43.191Z,36.07
2016-05-05T12:30:43.210Z,36.16
2016-05-05T12:31:43.212Z,35.88
2016-05-05T12:32:43.230Z,36.16
2016-05-05T12:33:43.249Z,36.16
2016-05-05T12:34:43.095Z,35.97
2016-05-05T12:35:43.254Z,35.88
2016-05-05T12:36:43.272Z,35.88
2016-05-05T12:37:43.275Z,35.88
2016-05-05T12:38:43.278Z,35.68
2016-05-05T12:39:43.296Z,35.88
2016-05-05T12:40:43.299Z,35.7
2016-05-05T12:41:43.302Z,35.68
2016-05-05T12:42:43.304Z,35.78
2016-05-05T12:43:43.322Z,35.8
2016-05-05T12:44:43.341Z,35.68
2016-05-05T12:45:43.375Z,35.58
2016-05-05T12:46:43.346Z,35.97
2016-05-05T12:47:43.349Z,35.89
2016-05-05T12:48:43.368Z,36.07
2016-05-05T12:49:43.370Z,35.78
2016-05-05T12:50:43.388Z,36.16
2016-05-05T12:51:43.390Z,35.97
2016-05-05T12:52:43.393Z,36.16
2016-05-05T12:53:43.396Z,36.26
2016-05-05T12:54:43.415Z,35.99
2016-05-05T12:55:43.402Z,35.97